createdAt,value
2023-05-19T00:02:44.188Z,13.6
2023-05-19T00:07:44.201Z,13.8
2023-05-19T00:12:44.292Z,13.7
2023-05-19T00:17:44.438Z,13.6
2023-05-19T00:22:44.555Z,13.6
2023-05-19T00:27:44.673Z,13.4
2023-05-19T00:32:44.867Z,13.3
2023-05-19T00:42:45.099Z,13.2
2023-05-19T00:47:45.251Z,13.2
2023-05-19T00:52:45.322Z,13.1
2023-05-19T00:57:45.485Z,13.0
2023-05-19T01:02:45.634Z,13.1
2023-05-19T01:07:45.684Z,13.0
2023-05-19T01:12:47.744Z,13.2
2023-05-19T01:17:45.922Z,13.0
2023-05-19T01:22:45.948Z,13.1
2023-05-19T01:27:46.075Z,13.3
2023-05-19T01:32:46.208Z,13.2
2023-05-19T01:37:46.262Z,13.1
2023-05-19T01:42:46.461Z,13.1
2023-05-19T01:47:46.500Z,13.1
2023-05-19T01:52:46.655Z,13.2
2023-05-19T01:57:46.817Z,13.2
2023-05-19T02:02:46.936Z,13.1
2023-05-19T02:07:47.092Z,13.1
2023-05-19T02:12:47.284Z,13.0
2023-05-19T02:17:47.510Z,13.0
2023-05-19T02:22:47.599Z,12.9
2023-05-19T02:27:47.891Z,12.9
2023-05-19T02:32:48.019Z,12.8
2023-05-19T02:37:48.144Z,12.9
2023-05-19T02:42:48.330Z,12.7
2023-05-19T02:47:48.426Z,12.8
2023-05-19T02:52:48.550Z,12.7
2023-05-19T02:57:48.712Z,12.6
2023-05-19T03:02:48.906Z,12.6
2023-05-19T03:07:49.000Z,12.7
2023-05-19T03:17:51.357Z,12.4
2023-05-19T03:22:49.413Z,12.4
2023-05-19T03:27:49.538Z,12.3
2023-05-19T03:32:49.740Z,12.2
2023-05-19T03:37:49.723Z,12.2
2023-05-19T03:42:49.836Z,12.1
2023-05-19T03:47:49.950Z,12.2
2023-05-19T03:52:50.032Z,12.1
2023-05-19T03:57:50.102Z,11.9
2023-05-19T04:02:50.271Z,11.8
2023-05-19T04:07:52.829Z,11.8
2023-05-19T04:12:50.393Z,11.8
2023-05-19T04:17:50.500Z,11.7
2023-05-19T04:22:50.531Z,12.0
2023-05-19T04:27:50.637Z,11.5
2023-05-19T04:32:50.865Z,11.5
2023-05-19T04:37:50.877Z,11.4
2023-05-19T04:42:51.008Z,11.5
2023-05-19T04:47:51.074Z,11.5
2023-05-19T04:52:51.163Z,11.4
2023-05-19T04:57:51.235Z,11.4
2023-05-19T05:02:53.469Z,11.8
2023-05-19T05:07:51.398Z,11.8
2023-05-19T05:12:51.485Z,11.9
2023-05-19T05:17:51.633Z,12.1
2023-05-19T05:22:51.673Z,12.1
2023-05-19T05:27:51.810Z,12.2
2023-05-19T05:32:52.108Z,12.1
2023-05-19T05:37:52.087Z,12.4
2023-05-19T05:47:52.560Z,12.9
2023-05-19T05:52:52.626Z,13.1
2023-05-19T05:57:52.729Z,13.3
2023-05-19T06:02:52.977Z,13.7
2023-05-19T06:07:53.063Z,14.1
2023-05-19T06:12:53.280Z,14.8
2023-05-19T06:17:53.488Z,15.4
2023-05-19T06:22:53.670Z,16.4
2023-05-19T06:27:53.899Z,16.6
2023-05-19T06:32:54.194Z,16.0
2023-05-19T06:37:54.543Z,15.5
2023-05-19T06:42:54.640Z,15.9
2023-05-19T06:47:54.887Z,15.9
2023-05-19T06:52:55.126Z,15.8
2023-05-19T07:02:55.687Z,16.0
2023-05-19T07:07:55.815Z,16.9
2023-05-19T07:12:56.051Z,17.4
2023-05-19T07:17:56.292Z,17.8
2023-05-19T07:22:56.560Z,18.6
2023-05-19T07:27:56.837Z,19.1
2023-05-19T07:32:57.172Z,19.4
2023-05-19T07:37:57.579Z,20.7
2023-05-19T07:42:57.820Z,20.5
2023-05-19T07:47:58.217Z,21.6
2023-05-19T07:57:59.091Z,21.7
2023-05-19T08:08:00.150Z,21.9
2023-05-19T08:13:00.501Z,21.8
2023-05-19T08:18:01.018Z,22.0
2023-05-19T08:23:01.476Z,21.6
2023-05-19T08:28:02.023Z,21.5
2023-05-19T08:33:02.558Z,21.6
2023-05-19T08:38:02.978Z,21.6
2023-05-19T08:43:03.409Z,21.2
2023-05-19T08:48:03.868Z,20.3
2023-05-19T08:53:08.156Z,20.5
2023-05-19T09:03:17.422Z,20.2
2023-05-19T09:08:05.428Z,20.8
2023-05-19T09:13:05.919Z,21.1
2023-05-19T09:18:06.472Z,21.5
2023-05-19T09:23:10.834Z,22.2
2023-05-19T09:28:07.471Z,22.4
2023-05-19T09:33:07.815Z,22.2
2023-05-19T09:38:08.427Z,22.8
2023-05-19T09:43:08.831Z,22.6
2023-05-19T09:48:09.485Z,23.1
2023-05-19T09:53:11.819Z,22.5
2023-05-19T09:58:11.493Z,22.5
2023-05-19T10:03:10.932Z,22.7
2023-05-19T10:08:11.400Z,22.8
2023-05-19T10:13:11.948Z,23.0
2023-05-19T10:18:12.647Z,23.2
2023-05-19T10:23:12.995Z,22.6
2023-05-19T10:28:13.561Z,22.5
2023-05-19T10:33:14.081Z,22.8
2023-05-19T10:38:18.332Z,23.8
2023-05-19T10:43:15.013Z,23.8
2023-05-19T10:48:15.578Z,24.6
2023-05-19T10:53:16.074Z,24.6
2023-05-19T10:58:16.673Z,23.9
2023-05-19T11:03:17.177Z,23.6
2023-05-19T11:08:17.645Z,23.6
2023-05-19T11:13:18.316Z,24.3
2023-05-19T11:18:18.747Z,24.1
2023-05-19T11:23:19.445Z,24.6
2023-05-19T11:28:20.196Z,24.6
2023-05-19T11:33:20.635Z,24.8
2023-05-19T11:38:21.036Z,24.2
2023-05-19T11:43:21.774Z,23.8
2023-05-19T11:48:22.223Z,23.4
2023-05-19T11:53:22.791Z,22.9
2023-05-19T11:58:23.246Z,21.9
2023-05-19T12:03:23.833Z,21.5
2023-05-19T12:08:24.147Z,21.1
2023-05-19T12:13:24.647Z,20.8
2023-05-19T12:18:24.924Z,20.6
2023-05-19T12:23:25.467Z,20.4
2023-05-19T12:28:25.743Z,20.2
2023-05-19T12:33:28.252Z,20.2
2023-05-19T12:38:26.702Z,20.3
2023-05-19T12:43:27.117Z,19.8
2023-05-19T12:53:27.903Z,18.9
2023-05-19T12:58:28.111Z,18.6
2023-05-19T13:03:31.190Z,18.7
2023-05-19T13:08:28.838Z,18.3
2023-05-19T13:13:29.314Z,18.1
2023-05-19T13:18:29.565Z,17.9
2023-05-19T13:23:29.993Z,18.4
2023-05-19T13:28:30.223Z,18.5
2023-05-19T13:33:30.659Z,18.4
2023-05-19T13:38:30.940Z,18.1
2023-05-19T13:43:31.345Z,18.0
2023-05-19T13:53:32.006Z,17.4
2023-05-19T13:58:32.108Z,17.8
2023-05-19T14:03:32.582Z,18.8
2023-05-19T14:08:32.855Z,18.6
2023-05-19T14:13:36.324Z,18.3
2023-05-19T14:18:33.544Z,17.9
2023-05-19T14:23:33.863Z,17.9
2023-05-19T14:28:34.158Z,17.5
2023-05-19T14:33:35.634Z,17.6
2023-05-19T14:38:34.827Z,17.6
2023-05-19T14:43:35.177Z,17.2
2023-05-19T14:48:35.428Z,17.5
2023-05-19T14:53:35.722Z,17.9
2023-05-19T14:58:36.013Z,17.9
2023-05-19T15:03:36.334Z,18.0
2023-05-19T15:08:36.596Z,18.2
2023-05-19T15:13:36.902Z,18.7
2023-05-19T15:18:37.225Z,19.0
2023-05-19T15:23:37.537Z,19.2
2023-05-19T15:28:37.896Z,20.0
2023-05-19T15:33:38.325Z,21.0
2023-05-19T15:38:38.685Z,21.6
2023-05-19T15:43:39.155Z,21.8
2023-05-19T15:48:39.567Z,22.0
2023-05-19T15:53:40.048Z,22.0
2023-05-19T15:58:40.556Z,21.9
2023-05-19T16:03:41.156Z,21.6
2023-05-19T16:08:41.615Z,20.5
2023-05-19T16:13:42.082Z,20.0
2023-05-19T16:18:42.598Z,20.4
2023-05-19T16:23:43.022Z,19.8
2023-05-19T16:28:43.429Z,19.4
2023-05-19T16:33:43.858Z,19.4
2023-05-19T16:38:44.231Z,20.1
2023-05-19T16:43:44.769Z,20.3
2023-05-19T16:48:45.094Z,21.7
2023-05-19T16:53:45.566Z,22.6
2023-05-19T16:58:46.088Z,22.2
2023-05-19T17:03:46.656Z,21.9
2023-05-19T17:08:49.611Z,21.8
2023-05-19T17:13:47.612Z,21.3
2023-05-19T17:18:48.283Z,21.1
2023-05-19T17:23:48.715Z,20.4
2023-05-19T17:33:49.574Z,20.6
2023-05-19T17:38:49.984Z,20.9
2023-05-19T17:43:52.619Z,20.1
2023-05-19T17:48:50.959Z,20.2
2023-05-19T17:53:51.414Z,20.6
2023-05-19T17:58:51.873Z,20.5
2023-05-19T18:03:52.392Z,20.2
2023-05-19T18:08:52.988Z,20.2
2023-05-19T18:13:53.190Z,20.1
2023-05-19T18:23:54.030Z,19.4
2023-05-19T18:28:54.420Z,19.3
2023-05-19T18:33:54.853Z,19.2
2023-05-19T18:38:55.197Z,18.9
2023-05-19T18:43:55.547Z,18.9
2023-05-19T18:48:55.906Z,18.9
2023-05-19T18:53:56.277Z,19.0
2023-05-19T18:58:56.630Z,18.6
2023-05-19T19:03:56.984Z,18.4
2023-05-19T19:08:57.338Z,18.2
2023-05-19T19:13:57.648Z,18.2
2023-05-19T19:18:58.039Z,18.1
2023-05-19T19:23:58.312Z,17.8
2023-05-19T19:28:58.595Z,17.6
2023-05-19T19:33:58.917Z,17.4
2023-05-19T19:43:59.597Z,17.2
2023-05-19T19:48:59.963Z,17.1
2023-05-19T19:54:00.279Z,16.9
2023-05-19T19:59:00.613Z,17.1
2023-05-19T20:04:01.134Z,16.9
2023-05-19T20:14:01.646Z,16.8
2023-05-19T20:19:01.993Z,16.8
2023-05-19T20:24:02.313Z,16.6
2023-05-19T20:29:02.618Z,16.4
2023-05-19T20:34:03.002Z,16.1
2023-05-19T20:39:03.247Z,16.0
2023-05-19T20:44:03.523Z,15.8
2023-05-19T20:49:03.808Z,15.6
2023-05-19T20:54:04.121Z,15.4
2023-05-19T20:59:04.388Z,15.3
2023-05-19T21:04:04.705Z,15.2
2023-05-19T21:14:05.191Z,15.1
2023-05-19T21:19:05.542Z,14.9
2023-05-19T21:24:05.754Z,14.9
2023-05-19T21:29:05.997Z,14.9
2023-05-19T21:34:08.777Z,14.8
2023-05-19T21:39:06.458Z,14.8
2023-05-19T21:44:06.737Z,14.6
2023-05-19T21:49:08.584Z,14.4
2023-05-19T21:54:07.236Z,14.7
2023-05-19T21:59:07.477Z,14.8
2023-05-19T22:04:07.859Z,14.6
2023-05-19T22:09:07.932Z,14.9
2023-05-19T22:14:08.319Z,14.7
2023-05-19T22:19:08.410Z,14.6
2023-05-19T22:24:08.570Z,14.5
2023-05-19T22:29:08.811Z,14.7
2023-05-19T22:34:09.056Z,14.6
2023-05-19T22:39:09.200Z,14.5
2023-05-19T22:44:09.388Z,14.5
2023-05-19T22:49:09.583Z,14.3
2023-05-19T22:54:09.781Z,14.2
2023-05-19T23:04:10.107Z,14.0
2023-05-19T23:09:10.296Z,14.2
2023-05-19T23:14:10.499Z,13.9
2023-05-19T23:19:10.657Z,13.6
2023-05-19T23:29:10.987Z,13.1
2023-05-19T23:34:11.149Z,12.9
2023-05-19T23:39:11.324Z,12.9
2023-05-19T23:44:11.472Z,12.8
2023-05-19T23:49:13.694Z,12.6
2023-05-19T23:54:11.768Z,12.4
2023-05-19T23:59:11.949Z,12.4
